sensor_id;sensor_type;location;lat;lon;timestamp;temperature;humidity
1181;DHT22;579;52.046;8.532;2022-08-14T00:01:49;24.00;1.00
1181;DHT22;579;52.046;8.532;2022-08-14T00:04:16;23.90;1.00
1181;DHT22;579;52.046;8.532;2022-08-14T00:09:42;23.80;1.00
1181;DHT22;579;52.046;8.532;2022-08-14T00:12:09;23.40;1.00
1181;DHT22;579;52.046;8.532;2022-08-14T00:14:38;23.40;1.00
1181;DHT22;579;52.046;8.532;2022-08-14T00:17:05;23.40;1.00
1181;DHT22;579;52.046;8.532;2022-08-14T00:19:31;23.20;1.00
1181;DHT22;579;52.046;8.532;2022-08-14T00:21:57;23.30;1.00
1181;DHT22;579;52.046;8.532;2022-08-14T00:24:23;23.20;1.00
1181;DHT22;579;52.046;8.532;2022-08-14T00:29:31;23.20;1.00
1181;DHT22;579;52.046;8.532;2022-08-14T00:31:57;23.00;1.00
1181;DHT22;579;52.046;8.532;2022-08-14T00:34:23;23.00;1.00
1181;DHT22;579;52.046;8.532;2022-08-14T00:36:49;22.80;1.00
1181;DHT22;579;52.046;8.532;2022-08-14T00:39:16;22.90;1.00
1181;DHT22;579;52.046;8.532;2022-08-14T00:41:42;22.80;1.00
1181;DHT22;579;52.046;8.532;2022-08-14T00:44:08;22.90;1.00
1181;DHT22;579;52.046;8.532;2022-08-14T00:46:36;22.90;1.00
1181;DHT22;579;52.046;8.532;2022-08-14T00:54:07;22.90;1.00
1181;DHT22;579;52.046;8.532;2022-08-14T00:56:33;22.90;1.00
1181;DHT22;579;52.046;8.532;2022-08-14T00:59:00;22.90;1.00
1181;DHT22;579;52.046;8.532;2022-08-14T01:01:26;22.90;1.00
1181;DHT22;579;52.046;8.532;2022-08-14T01:03:54;22.60;1.00
1181;DHT22;579;52.046;8.532;2022-08-14T01:06:22;22.60;1.00
1181;DHT22;579;52.046;8.532;2022-08-14T01:08:50;22.80;1.00
1181;DHT22;579;52.046;8.532;2022-08-14T01:13:56;22.80;1.00
1181;DHT22;579;52.046;8.532;2022-08-14T01:16:25;22.60;1.00
1181;DHT22;579;52.046;8.532;2022-08-14T01:18:51;22.70;1.00
1181;DHT22;579;52.046;8.532;2022-08-14T01:21:39;22.50;1.00
1181;DHT22;579;52.046;8.532;2022-08-14T01:24:06;22.60;1.00
1181;DHT22;579;52.046;8.532;2022-08-14T01:26:34;22.40;1.00
1181;DHT22;579;52.046;8.532;2022-08-14T01:29:02;22.50;1.00
1181;DHT22;579;52.046;8.532;2022-08-14T01:31:36;22.50;1.00
1181;DHT22;579;52.046;8.532;2022-08-14T01:36:39;22.20;1.00
1181;DHT22;579;52.046;8.532;2022-08-14T01:39:09;22.30;1.00
1181;DHT22;579;52.046;8.532;2022-08-14T01:41:37;22.20;1.00
1181;DHT22;579;52.046;8.532;2022-08-14T01:44:05;22.10;1.00
1181;DHT22;579;52.046;8.532;2022-08-14T01:46:37;22.10;1.00
1181;DHT22;579;52.046;8.532;2022-08-14T01:49:07;22.10;1.00
1181;DHT22;579;52.046;8.532;2022-08-14T01:51:35;22.20;1.00
1181;DHT22;579;52.046;8.532;2022-08-14T01:54:06;22.20;1.00
1181;DHT22;579;52.046;8.532;2022-08-14T02:01:40;22.00;1.00
1181;DHT22;579;52.046;8.532;2022-08-14T02:04:08;22.00;1.00
1181;DHT22;579;52.046;8.532;2022-08-14T02:06:35;22.00;1.00
1181;DHT22;579;52.046;8.532;2022-08-14T02:09:03;21.90;1.00
1181;DHT22;579;52.046;8.532;2022-08-14T02:11:30;21.90;1.00
1181;DHT22;579;52.046;8.532;2022-08-14T02:13:58;21.80;1.00
1181;DHT22;579;52.046;8.532;2022-08-14T02:16:28;21.70;1.00
1181;DHT22;579;52.046;8.532;2022-08-14T02:18:57;21.80;1.00
1181;DHT22;579;52.046;8.532;2022-08-14T02:21:44;22.00;1.00
1181;DHT22;579;52.046;8.532;2022-08-14T02:24:12;21.90;1.00
1181;DHT22;579;52.046;8.532;2022-08-14T02:26:42;21.70;1.00
1181;DHT22;579;52.046;8.532;2022-08-14T02:29:14;21.80;1.00
1181;DHT22;579;52.046;8.532;2022-08-14T02:31:44;21.60;1.00
1181;DHT22;579;52.046;8.532;2022-08-14T02:34:15;21.50;1.00
1181;DHT22;579;52.046;8.532;2022-08-14T02:36:45;21.50;1.00
1181;DHT22;579;52.046;8.532;2022-08-14T02:44:18;21.60;1.00
1181;DHT22;579;52.046;8.532;2022-08-14T02:46:48;21.50;1.00
1181;DHT22;579;52.046;8.532;2022-08-14T02:49:15;21.30;1.00
1181;DHT22;579;52.046;8.532;2022-08-14T02:51:45;21.30;1.00
1181;DHT22;579;52.046;8.532;2022-08-14T02:54:12;21.30;1.00
1181;DHT22;579;52.046;8.532;2022-08-14T02:56:38;21.50;1.00
1181;DHT22;579;52.046;8.532;2022-08-14T02:59:06;21.50;1.00
1181;DHT22;579;52.046;8.532;2022-08-14T03:06:39;21.30;1.00
1181;DHT22;579;52.046;8.532;2022-08-14T03:09:08;21.20;1.00
1181;DHT22;579;52.046;8.532;2022-08-14T03:11:34;21.20;1.00
1181;DHT22;579;52.046;8.532;2022-08-14T03:14:00;21.20;1.00
1181;DHT22;579;52.046;8.532;2022-08-14T03:16:27;21.20;1.00
1181;DHT22;579;52.046;8.532;2022-08-14T03:19:01;21.10;1.00
1181;DHT22;579;52.046;8.532;2022-08-14T03:21:28;21.00;1.00
1181;DHT22;579;52.046;8.532;2022-08-14T03:26:38;20.90;1.00
1181;DHT22;579;52.046;8.532;2022-08-14T03:29:05;20.80;1.00
1181;DHT22;579;52.046;8.532;2022-08-14T03:31:32;21.00;1.00
1181;DHT22;579;52.046;8.532;2022-08-14T03:34:01;20.90;1.00
1181;DHT22;579;52.046;8.532;2022-08-14T03:36:28;20.90;1.00
1181;DHT22;579;52.046;8.532;2022-08-14T03:38:56;20.90;1.00
1181;DHT22;579;52.046;8.532;2022-08-14T03:41:25;20.70;1.00
1181;DHT22;579;52.046;8.532;2022-08-14T03:43:55;20.90;1.00
1181;DHT22;579;52.046;8.532;2022-08-14T03:51:29;20.80;1.00
1181;DHT22;579;52.046;8.532;2022-08-14T03:53:57;20.50;1.00
1181;DHT22;579;52.046;8.532;2022-08-14T03:56:25;20.40;1.00
1181;DHT22;579;52.046;8.532;2022-08-14T03:58:54;20.40;1.00
1181;DHT22;579;52.046;8.532;2022-08-14T04:01:22;20.70;1.00
1181;DHT22;579;52.046;8.532;2022-08-14T04:03:52;20.50;1.00
1181;DHT22;579;52.046;8.532;2022-08-14T04:06:19;20.40;1.00
1181;DHT22;579;52.046;8.532;2022-08-14T04:11:42;20.60;1.00
1181;DHT22;579;52.046;8.532;2022-08-14T04:14:09;20.60;1.00
1181;DHT22;579;52.046;8.532;2022-08-14T04:16:35;20.70;1.00
1181;DHT22;579;52.046;8.532;2022-08-14T04:19:02;20.50;1.00
1181;DHT22;579;52.046;8.532;2022-08-14T04:21:29;20.40;1.00
1181;DHT22;579;52.046;8.532;2022-08-14T04:23:58;20.50;1.00
1181;DHT22;579;52.046;8.532;2022-08-14T04:26:26;20.40;1.00
1181;DHT22;579;52.046;8.532;2022-08-14T04:31:43;20.40;1.00
1181;DHT22;579;52.046;8.532;2022-08-14T04:34:09;20.60;1.00
1181;DHT22;579;52.046;8.532;2022-08-14T04:36:35;20.60;1.00
1181;DHT22;579;52.046;8.532;2022-08-14T04:39:22;20.60;1.00
1181;DHT22;579;52.046;8.532;2022-08-14T04:42:07;20.70;1.00
1181;DHT22;579;52.046;8.532;2022-08-14T04:44:51;20.90;1.00
1181;DHT22;579;52.046;8.532;2022-08-14T04:47:18;21.00;1.00
1181;DHT22;579;52.046;8.532;2022-08-14T04:55:08;20.80;1.00
1181;DHT22;579;52.046;8.532;2022-08-14T04:57:37;20.70;1.00
1181;DHT22;579;52.046;8.532;2022-08-14T05:00:05;20.60;1.00
1181;DHT22;579;52.046;8.532;2022-08-14T05:02:32;20.60;1.00
1181;DHT22;579;52.046;8.532;2022-08-14T05:04:59;20.50;1.00
1181;DHT22;579;52.046;8.532;2022-08-14T05:07:25;20.40;1.00
1181;DHT22;579;52.046;8.532;2022-08-14T05:09:51;20.50;1.00
1181;DHT22;579;52.046;8.532;2022-08-14T05:14:57;20.50;1.00
1181;DHT22;579;52.046;8.532;2022-08-14T05:17:24;20.70;1.00
1181;DHT22;579;52.046;8.532;2022-08-14T05:19:50;20.80;1.00
1181;DHT22;579;52.046;8.532;2022-08-14T05:22:17;21.00;1.00
1181;DHT22;579;52.046;8.532;2022-08-14T05:24:44;21.00;1.00
1181;DHT22;579;52.046;8.532;2022-08-14T05:27:12;21.10;1.00
1181;DHT22;579;52.046;8.532;2022-08-14T05:29:38;21.10;1.00
1181;DHT22;579;52.046;8.532;2022-08-14T05:37:12;21.30;1.00
1181;DHT22;579;52.046;8.532;2022-08-14T05:39:39;21.40;1.00
1181;DHT22;579;52.046;8.532;2022-08-14T05:42:06;21.40;1.00
1181;DHT22;579;52.046;8.532;2022-08-14T05:44:32;21.50;1.00
1181;DHT22;579;52.046;8.532;2022-08-14T05:46:58;21.50;1.00
1181;DHT22;579;52.046;8.532;2022-08-14T05:49:26;21.40;1.00
1181;DHT22;579;52.046;8.532;2022-08-14T05:51:53;21.50;1.00
1181;DHT22;579;52.046;8.532;2022-08-14T05:59:24;21.80;1.00
1181;DHT22;579;52.046;8.532;2022-08-14T06:01:50;22.00;1.00
1181;DHT22;579;52.046;8.532;2022-08-14T06:04:17;22.20;1.00
1181;DHT22;579;52.046;8.532;2022-08-14T06:06:43;22.20;1.00
1181;DHT22;579;52.046;8.532;2022-08-14T06:09:09;22.30;1.00
1181;DHT22;579;52.046;8.532;2022-08-14T06:11:35;22.40;1.00
1181;DHT22;579;52.046;8.532;2022-08-14T06:14:02;22.60;1.00
1181;DHT22;579;52.046;8.532;2022-08-14T06:21:31;22.80;1.00
1181;DHT22;579;52.046;8.532;2022-08-14T06:23:57;23.20;1.00
1181;DHT22;579;52.046;8.532;2022-08-14T06:26:23;23.30;1.00
1181;DHT22;579;52.046;8.532;2022-08-14T06:28:50;23.50;1.00
1181;DHT22;579;52.046;8.532;2022-08-14T06:31:16;23.50;1.00
1181;DHT22;579;52.046;8.532;2022-08-14T06:33:42;23.50;1.00
1181;DHT22;579;52.046;8.532;2022-08-14T06:36:09;23.40;1.00
1181;DHT22;579;52.046;8.532;2022-08-14T06:41:29;23.80;1.00
1181;DHT22;579;52.046;8.532;2022-08-14T06:43:55;23.90;1.00
1181;DHT22;579;52.046;8.532;2022-08-14T06:46:21;23.90;1.00
1181;DHT22;579;52.046;8.532;2022-08-14T06:48:48;24.20;1.00
1181;DHT22;579;52.046;8.532;2022-08-14T06:51:14;24.40;1.00
1181;DHT22;579;52.046;8.532;2022-08-14T06:53:40;24.50;1.00
1181;DHT22;579;52.046;8.532;2022-08-14T06:56:06;24.60;1.00
1181;DHT22;579;52.046;8.532;2022-08-14T07:03:39;24.70;1.00
1181;DHT22;579;52.046;8.532;2022-08-14T07:06:23;24.70;1.00
1181;DHT22;579;52.046;8.532;2022-08-14T07:08:49;24.90;1.00
1181;DHT22;579;52.046;8.532;2022-08-14T07:11:16;25.10;1.00
1181;DHT22;579;52.046;8.532;2022-08-14T07:13:42;25.20;1.00
1181;DHT22;579;52.046;8.532;2022-08-14T07:16:09;25.50;1.00
1181;DHT22;579;52.046;8.532;2022-08-14T07:18:38;25.50;1.00
1181;DHT22;579;52.046;8.532;2022-08-14T07:26:11;25.70;1.00
1181;DHT22;579;52.046;8.532;2022-08-14T07:28:39;26.10;1.00
1181;DHT22;579;52.046;8.532;2022-08-14T07:31:07;26.00;1.00
1181;DHT22;579;52.046;8.532;2022-08-14T07:33:37;26.30;1.00
1181;DHT22;579;52.046;8.532;2022-08-14T07:36:06;26.50;1.00
1181;DHT22;579;52.046;8.532;2022-08-14T07:38:35;26.40;1.00
1181;DHT22;579;52.046;8.532;2022-08-14T07:41:02;26.50;1.00
1181;DHT22;579;52.046;8.532;2022-08-14T07:48:38;26.70;1.00
1181;DHT22;579;52.046;8.532;2022-08-14T07:51:05;26.90;1.00
1181;DHT22;579;52.046;8.532;2022-08-14T07:53:32;27.20;1.00
1181;DHT22;579;52.046;8.532;2022-08-14T07:55:58;27.50;1.00
1181;DHT22;579;52.046;8.532;2022-08-14T07:58:24;27.60;1.00
1181;DHT22;579;52.046;8.532;2022-08-14T08:00:53;27.70;1.00
1181;DHT22;579;52.046;8.532;2022-08-14T08:03:21;27.90;1.00
1181;DHT22;579;52.046;8.532;2022-08-14T08:10:54;27.90;1.00
1181;DHT22;579;52.046;8.532;2022-08-14T08:13:22;28.10;1.00
1181;DHT22;579;52.046;8.532;2022-08-14T08:15:50;28.20;1.00
1181;DHT22;579;52.046;8.532;2022-08-14T08:18:18;28.30;1.00
1181;DHT22;579;52.046;8.532;2022-08-14T08:20:47;28.20;1.00
1181;DHT22;579;52.046;8.532;2022-08-14T08:23:16;28.20;1.00
1181;DHT22;579;52.046;8.532;2022-08-14T08:25:45;28.20;1.00
1181;DHT22;579;52.046;8.532;2022-08-14T08:33:22;28.90;1.00
1181;DHT22;579;52.046;8.532;2022-08-14T08:35:50;29.40;1.00
1181;DHT22;579;52.046;8.532;2022-08-14T08:38:19;29.40;1.00
1181;DHT22;579;52.046;8.532;2022-08-14T08:40:54;29.40;1.00
1181;DHT22;579;52.046;8.532;2022-08-14T08:43:23;29.60;1.00
1181;DHT22;579;52.046;8.532;2022-08-14T08:45:54;30.00;1.00
1181;DHT22;579;52.046;8.532;2022-08-14T08:48:23;30.20;1.00
1181;DHT22;579;52.046;8.532;2022-08-14T08:55:28;30.50;1.00
1181;DHT22;579;52.046;8.532;2022-08-14T08:57:59;30.60;1.00
1181;DHT22;579;52.046;8.532;2022-08-14T09:00:30;30.40;1.00
1181;DHT22;579;52.046;8.532;2022-08-14T09:03:04;30.30;1.00
1181;DHT22;579;52.046;8.532;2022-08-14T09:05:33;30.70;1.00
1181;DHT22;579;52.046;8.532;2022-08-14T09:08:15;30.70;1.00
1181;DHT22;579;52.046;8.532;2022-08-14T09:10:44;30.80;1.00
1181;DHT22;579;52.046;8.532;2022-08-14T09:18:18;31.10;1.00
1181;DHT22;579;52.046;8.532;2022-08-14T09:20:48;31.60;1.00
1181;DHT22;579;52.046;8.532;2022-08-14T09:23:18;31.60;1.00
1181;DHT22;579;52.046;8.532;2022-08-14T09:25:46;31.60;1.00
1181;DHT22;579;52.046;8.532;2022-08-14T09:28:14;31.70;1.00
1181;DHT22;579;52.046;8.532;2022-08-14T09:30:43;31.60;1.00
1181;DHT22;579;52.046;8.532;2022-08-14T09:33:30;31.80;1.00
1181;DHT22;579;52.046;8.532;2022-08-14T09:36:57;31.80;1.00
1181;DHT22;579;52.046;8.532;2022-08-14T09:39:49;32.00;1.00
1181;DHT22;579;52.046;8.532;2022-08-14T09:42:27;32.30;1.00
1181;DHT22;579;52.046;8.532;2022-08-14T09:45:12;32.30;1.00
1181;DHT22;579;52.046;8.532;2022-08-14T09:47:42;32.40;1.00
1181;DHT22;579;52.046;8.532;2022-08-14T09:50:21;32.50;1.00
1181;DHT22;579;52.046;8.532;2022-08-14T09:55:42;32.80;1.00
1181;DHT22;579;52.046;8.532;2022-08-14T09:58:10;33.20;1.00
1181;DHT22;579;52.046;8.532;2022-08-14T10:00:44;33.40;1.00
1181;DHT22;579;52.046;8.532;2022-08-14T10:03:11;33.60;1.00
1181;DHT22;579;52.046;8.532;2022-08-14T10:05:38;33.90;1.00
1181;DHT22;579;52.046;8.532;2022-08-14T10:08:17;34.20;1.00
1181;DHT22;579;52.046;8.532;2022-08-14T10:10:45;34.20;1.00
1181;DHT22;579;52.046;8.532;2022-08-14T10:18:15;34.70;1.00
1181;DHT22;579;52.046;8.532;2022-08-14T10:20:43;35.10;1.00
1181;DHT22;579;52.046;8.532;2022-08-14T10:23:19;35.10;1.00
1181;DHT22;579;52.046;8.532;2022-08-14T10:25:48;34.90;1.00
1181;DHT22;579;52.046;8.532;2022-08-14T10:28:17;34.80;1.00
1181;DHT22;579;52.046;8.532;2022-08-14T10:30:45;34.90;1.00
1181;DHT22;579;52.046;8.532;2022-08-14T10:33:28;34.90;1.00
1181;DHT22;579;52.046;8.532;2022-08-14T10:41:12;34.40;1.00
1181;DHT22;579;52.046;8.532;2022-08-14T10:43:40;33.90;1.00
1181;DHT22;579;52.046;8.532;2022-08-14T10:46:14;33.70;1.00
1181;DHT22;579;52.046;8.532;2022-08-14T10:48:55;33.80;1.00
1181;DHT22;579;52.046;8.532;2022-08-14T10:51:24;33.70;1.00
1181;DHT22;579;52.046;8.532;2022-08-14T10:53:53;33.50;1.00
1181;DHT22;579;52.046;8.532;2022-08-14T10:56:29;33.40;1.00
1181;DHT22;579;52.046;8.532;2022-08-14T11:03:13;32.90;1.00
1181;DHT22;579;52.046;8.532;2022-08-14T11:05:43;33.10;1.00
1181;DHT22;579;52.046;8.532;2022-08-14T11:08:11;32.90;1.00
1181;DHT22;579;52.046;8.532;2022-08-14T11:10:45;32.60;1.00
1181;DHT22;579;52.046;8.532;2022-08-14T11:13:16;32.20;1.00
1181;DHT22;579;52.046;8.532;2022-08-14T11:15:44;32.10;1.00
1181;DHT22;579;52.046;8.532;2022-08-14T11:18:11;32.00;1.00
1181;DHT22;579;52.046;8.532;2022-08-14T11:23:27;31.80;1.00
1181;DHT22;579;52.046;8.532;2022-08-14T11:25:56;32.20;1.00
1181;DHT22;579;52.046;8.532;2022-08-14T11:28:26;32.40;1.00
1181;DHT22;579;52.046;8.532;2022-08-14T11:30:54;32.60;1.00
1181;DHT22;579;52.046;8.532;2022-08-14T11:33:21;32.70;1.00
1181;DHT22;579;52.046;8.532;2022-08-14T11:35:49;32.90;1.00
1181;DHT22;579;52.046;8.532;2022-08-14T11:38:16;33.30;1.00
1181;DHT22;579;52.046;8.532;2022-08-14T11:45:16;34.10;1.00
1181;DHT22;579;52.046;8.532;2022-08-14T11:47:44;34.00;1.00
1181;DHT22;579;52.046;8.532;2022-08-14T11:50:12;33.60;1.00
1181;DHT22;579;52.046;8.532;2022-08-14T11:52:40;33.50;1.00
1181;DHT22;579;52.046;8.532;2022-08-14T11:55:08;33.40;1.00
1181;DHT22;579;52.046;8.532;2022-08-14T11:57:37;33.60;1.00
1181;DHT22;579;52.046;8.532;2022-08-14T12:00:06;33.80;1.00
1181;DHT22;579;52.046;8.532;2022-08-14T12:07:47;33.60;1.00
1181;DHT22;579;52.046;8.532;2022-08-14T12:10:16;33.30;1.00
1181;DHT22;579;52.046;8.532;2022-08-14T12:12:43;33.20;1.00
1181;DHT22;579;52.046;8.532;2022-08-14T12:15:10;33.20;1.00
1181;DHT22;579;52.046;8.532;2022-08-14T12:17:43;33.70;1.00
1181;DHT22;579;52.046;8.532;2022-08-14T12:20:10;33.80;1.00
1181;DHT22;579;52.046;8.532;2022-08-14T12:22:38;33.70;1.00
1181;DHT22;579;52.046;8.532;2022-08-14T12:29:52;33.80;1.00
1181;DHT22;579;52.046;8.532;2022-08-14T12:32:19;33.50;1.00
1181;DHT22;579;52.046;8.532;2022-08-14T12:34:52;33.40;1.00
1181;DHT22;579;52.046;8.532;2022-08-14T12:37:28;33.30;1.00
1181;DHT22;579;52.046;8.532;2022-08-14T12:40:08;33.50;1.00
1181;DHT22;579;52.046;8.532;2022-08-14T12:42:35;34.20;1.00
1181;DHT22;579;52.046;8.532;2022-08-14T12:45:04;34.80;1.00
1181;DHT22;579;52.046;8.532;2022-08-14T12:53:13;35.00;1.00
1181;DHT22;579;52.046;8.532;2022-08-14T12:55:41;35.20;1.00
1181;DHT22;579;52.046;8.532;2022-08-14T12:58:08;35.20;1.00
1181;DHT22;579;52.046;8.532;2022-08-14T13:00:37;35.10;1.00
1181;DHT22;579;52.046;8.532;2022-08-14T13:03:04;34.90;1.00
1181;DHT22;579;52.046;8.532;2022-08-14T13:05:32;34.50;1.00
1181;DHT22;579;52.046;8.532;2022-08-14T13:08:02;34.50;1.00
1181;DHT22;579;52.046;8.532;2022-08-14T13:15:37;34.20;1.00
1181;DHT22;579;52.046;8.532;2022-08-14T13:18:04;33.90;1.00
1181;DHT22;579;52.046;8.532;2022-08-14T13:20:31;34.10;1.00
1181;DHT22;579;52.046;8.532;2022-08-14T13:22:58;34.20;1.00
1181;DHT22;579;52.046;8.532;2022-08-14T13:25:27;34.30;1.00
1181;DHT22;579;52.046;8.532;2022-08-14T13:27:54;34.20;1.00
1181;DHT22;579;52.046;8.532;2022-08-14T13:30:24;34.00;1.00
1181;DHT22;579;52.046;8.532;2022-08-14T13:37:57;33.80;1.00
1181;DHT22;579;52.046;8.532;2022-08-14T13:40:24;34.00;1.00
1181;DHT22;579;52.046;8.532;2022-08-14T13:42:54;34.20;1.00
1181;DHT22;579;52.046;8.532;2022-08-14T13:45:21;34.10;1.00
1181;DHT22;579;52.046;8.532;2022-08-14T13:47:49;34.40;1.00
1181;DHT22;579;52.046;8.532;2022-08-14T13:50:17;34.60;1.00
1181;DHT22;579;52.046;8.532;2022-08-14T13:52:47;34.50;1.00
1181;DHT22;579;52.046;8.532;2022-08-14T14:00:24;34.30;1.00
1181;DHT22;579;52.046;8.532;2022-08-14T14:02:51;35.90;1.00
1181;DHT22;579;52.046;8.532;2022-08-14T14:05:18;36.50;1.00
1181;DHT22;579;52.046;8.532;2022-08-14T14:07:47;36.20;1.00
1181;DHT22;579;52.046;8.532;2022-08-14T14:10:15;35.80;1.00
1181;DHT22;579;52.046;8.532;2022-08-14T14:12:43;35.50;1.00
1181;DHT22;579;52.046;8.532;2022-08-14T14:15:11;35.30;1.00
1181;DHT22;579;52.046;8.532;2022-08-14T14:22:43;35.30;1.00
1181;DHT22;579;52.046;8.532;2022-08-14T14:25:12;35.00;1.00
1181;DHT22;579;52.046;8.532;2022-08-14T14:27:42;34.70;1.00
1181;DHT22;579;52.046;8.532;2022-08-14T14:30:11;34.30;1.00
1181;DHT22;579;52.046;8.532;2022-08-14T14:32:39;34.10;1.00
1181;DHT22;579;52.046;8.532;2022-08-14T14:35:10;33.80;1.00
1181;DHT22;579;52.046;8.532;2022-08-14T14:37:39;33.60;1.00
1181;DHT22;579;52.046;8.532;2022-08-14T14:42:47;33.50;1.00
1181;DHT22;579;52.046;8.532;2022-08-14T14:45:18;33.80;1.00
1181;DHT22;579;52.046;8.532;2022-08-14T14:47:47;35.80;1.00
1181;DHT22;579;52.046;8.532;2022-08-14T14:50:16;38.60;1.00
1181;DHT22;579;52.046;8.532;2022-08-14T14:52:44;40.90;1.00
1181;DHT22;579;52.046;8.532;2022-08-14T14:55:12;42.70;1.00
1181;DHT22;579;52.046;8.532;2022-08-14T14:57:39;44.20;1.00
1181;DHT22;579;52.046;8.532;2022-08-14T15:06:14;47.30;1.00
1181;DHT22;579;52.046;8.532;2022-08-14T15:08:41;48.00;1.00
1181;DHT22;579;52.046;8.532;2022-08-14T15:11:08;48.30;1.00
1181;DHT22;579;52.046;8.532;2022-08-14T15:13:34;48.80;1.00
1181;DHT22;579;52.046;8.532;2022-08-14T15:16:02;46.80;1.00
1181;DHT22;579;52.046;8.532;2022-08-14T15:18:29;44.80;1.00
1181;DHT22;579;52.046;8.532;2022-08-14T15:20:55;43.10;1.00
1181;DHT22;579;52.046;8.532;2022-08-14T15:28:28;39.10;1.00
1181;DHT22;579;52.046;8.532;2022-08-14T15:30:54;39.10;1.00
1181;DHT22;579;52.046;8.532;2022-08-14T15:33:20;38.20;1.00
1181;DHT22;579;52.046;8.532;2022-08-14T15:36:02;37.70;1.00
1181;DHT22;579;52.046;8.532;2022-08-14T15:38:29;39.10;1.00
1181;DHT22;579;52.046;8.532;2022-08-14T15:40:56;40.90;1.00
1181;DHT22;579;52.046;8.532;2022-08-14T15:43:29;41.00;1.00
1181;DHT22;579;52.046;8.532;2022-08-14T15:51:04;39.70;1.00
1181;DHT22;579;52.046;8.532;2022-08-14T15:53:30;38.70;1.00
1181;DHT22;579;52.046;8.532;2022-08-14T15:55:56;37.90;1.00
1181;DHT22;579;52.046;8.532;2022-08-14T15:58:24;37.50;1.00
1181;DHT22;579;52.046;8.532;2022-08-14T16:00:51;37.40;1.00
1181;DHT22;579;52.046;8.532;2022-08-14T16:03:38;36.70;1.00
1181;DHT22;579;52.046;8.532;2022-08-14T16:06:07;36.40;1.00
1181;DHT22;579;52.046;8.532;2022-08-14T16:13:39;36.10;1.00
1181;DHT22;579;52.046;8.532;2022-08-14T16:16:09;36.20;1.00
1181;DHT22;579;52.046;8.532;2022-08-14T16:18:38;36.00;1.00
1181;DHT22;579;52.046;8.532;2022-08-14T16:21:07;36.00;1.00
1181;DHT22;579;52.046;8.532;2022-08-14T16:23:36;35.90;1.00
1181;DHT22;579;52.046;8.532;2022-08-14T16:26:09;35.80;1.00
1181;DHT22;579;52.046;8.532;2022-08-14T16:28:38;35.70;1.00
1181;DHT22;579;52.046;8.532;2022-08-14T16:35:44;35.20;1.00
1181;DHT22;579;52.046;8.532;2022-08-14T16:38:14;34.50;1.00
1181;DHT22;579;52.046;8.532;2022-08-14T16:40:42;34.20;1.00
1181;DHT22;579;52.046;8.532;2022-08-14T16:43:09;34.00;1.00
1181;DHT22;579;52.046;8.532;2022-08-14T16:45:36;33.80;1.00
1181;DHT22;579;52.046;8.532;2022-08-14T16:48:04;33.60;1.00
1181;DHT22;579;52.046;8.532;2022-08-14T16:50:32;33.60;1.00
1181;DHT22;579;52.046;8.532;2022-08-14T16:58:02;33.20;1.00
1181;DHT22;579;52.046;8.532;2022-08-14T17:00:31;33.10;1.00
1181;DHT22;579;52.046;8.532;2022-08-14T17:03:00;32.90;1.00
1181;DHT22;579;52.046;8.532;2022-08-14T17:05:32;33.30;1.00
1181;DHT22;579;52.046;8.532;2022-08-14T17:08:10;33.00;1.00
1181;DHT22;579;52.046;8.532;2022-08-14T17:10:59;33.10;1.00
1181;DHT22;579;52.046;8.532;2022-08-14T17:13:28;32.90;1.00
1181;DHT22;579;52.046;8.532;2022-08-14T17:21:21;32.70;1.00
1181;DHT22;579;52.046;8.532;2022-08-14T17:23:50;32.60;1.00
1181;DHT22;579;52.046;8.532;2022-08-14T17:26:36;32.70;1.00
1181;DHT22;579;52.046;8.532;2022-08-14T17:29:05;32.80;1.00
1181;DHT22;579;52.046;8.532;2022-08-14T17:31:33;32.80;1.00
1181;DHT22;579;52.046;8.532;2022-08-14T17:34:00;32.80;1.00
1181;DHT22;579;52.046;8.532;2022-08-14T17:36:29;32.80;1.00
1181;DHT22;579;52.046;8.532;2022-08-14T17:44:08;32.50;1.00
1181;DHT22;579;52.046;8.532;2022-08-14T17:46:44;32.50;1.00
1181;DHT22;579;52.046;8.532;2022-08-14T17:49:16;32.40;1.00
1181;DHT22;579;52.046;8.532;2022-08-14T17:52:04;32.30;1.00
1181;DHT22;579;52.046;8.532;2022-08-14T17:54:34;32.00;1.00
1181;DHT22;579;52.046;8.532;2022-08-14T17:57:04;31.80;1.00
1181;DHT22;579;52.046;8.532;2022-08-14T18:04:41;31.90;1.00
1181;DHT22;579;52.046;8.532;2022-08-14T18:07:10;31.70;1.00
1181;DHT22;579;52.046;8.532;2022-08-14T18:09:39;31.70;1.00
1181;DHT22;579;52.046;8.532;2022-08-14T18:12:07;31.50;1.00
1181;DHT22;579;52.046;8.532;2022-08-14T18:14:35;31.30;1.00
1181;DHT22;579;52.046;8.532;2022-08-14T18:17:03;31.50;1.00
1181;DHT22;579;52.046;8.532;2022-08-14T18:19:32;31.50;1.00
1181;DHT22;579;52.046;8.532;2022-08-14T18:27:10;31.20;1.00
1181;DHT22;579;52.046;8.532;2022-08-14T18:29:42;30.90;1.00
1181;DHT22;579;52.046;8.532;2022-08-14T18:32:42;30.90;1.00
1181;DHT22;579;52.046;8.532;2022-08-14T18:35:11;31.00;1.00
1181;DHT22;579;52.046;8.532;2022-08-14T18:37:39;31.00;1.00
1181;DHT22;579;52.046;8.532;2022-08-14T18:40:26;30.90;1.00
1181;DHT22;579;52.046;8.532;2022-08-14T18:42:59;30.80;1.00
1181;DHT22;579;52.046;8.532;2022-08-14T18:50:30;30.60;1.00
1181;DHT22;579;52.046;8.532;2022-08-14T18:53:04;30.40;1.00
1181;DHT22;579;52.046;8.532;2022-08-14T18:55:39;30.20;1.00
1181;DHT22;579;52.046;8.532;2022-08-14T18:58:13;30.20;1.00
1181;DHT22;579;52.046;8.532;2022-08-14T19:00:54;30.20;1.00
1181;DHT22;579;52.046;8.532;2022-08-14T19:03:53;30.00;1.00
1181;DHT22;579;52.046;8.532;2022-08-14T19:09:54;29.80;1.00
1181;DHT22;579;52.046;8.532;2022-08-14T19:12:56;29.70;1.00
1181;DHT22;579;52.046;8.532;2022-08-14T19:15:27;29.60;1.00
1181;DHT22;579;52.046;8.532;2022-08-14T19:17:56;29.50;1.00
1181;DHT22;579;52.046;8.532;2022-08-14T19:20:23;29.50;1.00
1181;DHT22;579;52.046;8.532;2022-08-14T19:22:52;29.30;1.00
1181;DHT22;579;52.046;8.532;2022-08-14T19:33:50;29.10;1.00
1181;DHT22;579;52.046;8.532;2022-08-14T19:36:18;28.90;1.00
1181;DHT22;579;52.046;8.532;2022-08-14T19:38:48;28.80;1.00
1181;DHT22;579;52.046;8.532;2022-08-14T19:41:21;28.80;1.00
1181;DHT22;579;52.046;8.532;2022-08-14T19:43:50;28.70;1.00
1181;DHT22;579;52.046;8.532;2022-08-14T19:46:21;28.60;1.00
1181;DHT22;579;52.046;8.532;2022-08-14T19:48:50;28.60;1.00
1181;DHT22;579;52.046;8.532;2022-08-14T19:57:46;28.40;1.00
1181;DHT22;579;52.046;8.532;2022-08-14T20:00:18;28.30;1.00
1181;DHT22;579;52.046;8.532;2022-08-14T20:02:44;28.30;1.00
1181;DHT22;579;52.046;8.532;2022-08-14T20:05:13;28.20;1.00
1181;DHT22;579;52.046;8.532;2022-08-14T20:07:40;28.20;1.00
1181;DHT22;579;52.046;8.532;2022-08-14T20:10:09;28.00;1.00
1181;DHT22;579;52.046;8.532;2022-08-14T20:12:37;28.00;1.00
1181;DHT22;579;52.046;8.532;2022-08-14T20:17:48;27.90;1.00
1181;DHT22;579;52.046;8.532;2022-08-14T20:20:16;27.80;1.00
1181;DHT22;579;52.046;8.532;2022-08-14T20:22:43;27.80;1.00
1181;DHT22;579;52.046;8.532;2022-08-14T20:25:10;27.70;1.00
1181;DHT22;579;52.046;8.532;2022-08-14T20:27:39;27.70;1.00
1181;DHT22;579;52.046;8.532;2022-08-14T20:30:09;27.70;1.00
1181;DHT22;579;52.046;8.532;2022-08-14T20:32:45;27.60;1.00
1181;DHT22;579;52.046;8.532;2022-08-14T20:40:19;27.40;1.00
1181;DHT22;579;52.046;8.532;2022-08-14T20:42:49;27.40;1.00
1181;DHT22;579;52.046;8.532;2022-08-14T20:45:46;27.30;1.00
1181;DHT22;579;52.046;8.532;2022-08-14T20:48:17;27.30;1.00
1181;DHT22;579;52.046;8.532;2022-08-14T20:50:46;27.30;1.00
1181;DHT22;579;52.046;8.532;2022-08-14T20:53:27;27.20;1.00
1181;DHT22;579;52.046;8.532;2022-08-14T21:00:32;27.10;1.00
1181;DHT22;579;52.046;8.532;2022-08-14T21:03:36;27.10;1.00
1181;DHT22;579;52.046;8.532;2022-08-14T21:06:14;27.00;1.00
1181;DHT22;579;52.046;8.532;2022-08-14T21:08:44;26.90;1.00